Terminal Aerodrome Forecast
Issued by NWS Greer, SC

Home | Current Version | Previous Version | Text Only | Print | Product List | Glossary On
Versions: 1 2 3 4 5 6 7 8 9 10 11 12 13 14 15 16 17 18 19 20 21 22 23 24 25 26 27 28 29 30 31
000
FTUS42 KGSP 242325
TAFCLT
TAF
KCLT 242325Z 2500/2524 17009KT P6SM VCSH SCT025 BKN060
      TEMPO 2500/2504 5SM SHRA BR OVC020
     FM250400 19006KT 4SM BR OVC015
     FM250700 23006KT P6SM SCT020 BKN060
     FM251500 24012G18KT P6SM SCT040 BKN100 PROB30 2517/2521 -SHRA
      OVC040=

USA.gov is the U.S. government's official web portal to all federal, state and local government web resources and services.